»·PEaware :: N335AK KVUO-KSAC

N335AK :: KVUO-KSAC

FLIGHT INFORMATION

Flight Status: Arrived
Operator: Privately registered:
United States
More flights under this callsign
Pilot: Gabor H. (24209)
Aircraft: Unknown
(EPIC)
More flights by this aircraft type
Origin: KVUO Pearson
United States
Destination: KSAC Sacramento Executive
United States
More flights between these airports :: More routes between these airports
Route: BTG V23 EUG J126 RBL V23 SAC
File this flight plan on PilotEdge
Remarks:
Altitude:
(Current/Filed)
31,000ft
Speed:
(Current/Filed)
325kts
Departed: 12-Aug-20 06:40 PM
Arrived: 12-Aug-20 08:20 PM
Distance/Time
Traveled:
429nm/1:39
Distance/Time
To Go:
Arrived

Flight Plot

Page will automatically refresh every two minutes.

Flight plan parsing failed; only flown route is shown


Map Options




Map Legend


Flown Route
Filed Route
Departure Airport
Arrival Airport
Navaid (VOR, NDB)
Fix

Horizontal Profiles

Position Reports

Time Latitude Longitude Heading Altitude Ground
Speed
12-Aug-20 18:29 45.621542 -122.655086 182 26ft 0kts
12-Aug-20 18:30 45.621542 -122.655086 182 26ft 0kts
12-Aug-20 18:31 45.621542 -122.655086 182 26ft 0kts
12-Aug-20 18:32 45.621542 -122.655086 182 26ft 0kts
12-Aug-20 18:33 45.621542 -122.655086 182 26ft 0kts
12-Aug-20 18:34 45.621301 -122.653789 96 26ft 7kts
12-Aug-20 18:35 45.621201 -122.651721 105 26ft 3kts
12-Aug-20 18:36 45.620323 -122.650640 90 25ft 5kts
12-Aug-20 18:37 45.620279 -122.650335 132 25ft 0kts
12-Aug-20 18:38 45.620148 -122.650203 153 25ft 6kts
12-Aug-20 18:39 45.620324 -122.655172 279 28ft 102kts
12-Aug-20 18:40 45.642938 -122.701346 323 441ft 130kts
12-Aug-20 18:41 45.672060 -122.719165 341 785ft 114kts
12-Aug-20 18:42 45.714179 -122.737523 341 1505ft 181kts
12-Aug-20 18:43 45.763548 -122.753064 358 2316ft 183kts
12-Aug-20 18:44 45.802501 -122.709904 67 3476ft 198kts
12-Aug-20 18:45 45.781812 -122.642375 133 4873ft 217kts
12-Aug-20 18:46 45.729800 -122.601816 192 7501ft 229kts
12-Aug-20 18:47 45.667750 -122.623480 199 10552ft 236kts
12-Aug-20 18:48 45.603566 -122.648916 200 13420ft 246kts
12-Aug-20 18:49 45.534673 -122.676347 200 15010ft 285kts
12-Aug-20 18:50 45.452649 -122.708819 199 15009ft 317kts
12-Aug-20 18:51 45.366469 -122.742843 199 15005ft 325kts
12-Aug-20 18:52 45.278947 -122.777293 199 15001ft 327kts
12-Aug-20 18:53 45.191569 -122.811536 199 15247ft 318kts
12-Aug-20 18:54 45.119733 -122.839566 201 18273ft 266kts
12-Aug-20 18:55 45.048266 -122.867430 202 19984ft 267kts
12-Aug-20 18:56 44.978229 -122.894666 202 21773ft 257kts
12-Aug-20 18:57 44.911184 -122.921808 205 23559ft 245kts
12-Aug-20 18:58 44.849934 -122.949734 204 25279ft 236kts
12-Aug-20 18:59 44.786633 -122.972492 203 26836ft 237kts
12-Aug-20 19:00 44.721920 -122.995393 203 28113ft 245kts
12-Aug-20 19:01 44.654878 -123.019667 204 29224ft 251kts
12-Aug-20 19:02 44.586886 -123.045718 204 30203ft 257kts
12-Aug-20 19:03 44.516941 -123.072471 204 31047ft 264kts
12-Aug-20 19:04 44.442413 -123.100958 203 31103ft 290kts
12-Aug-20 19:05 44.362353 -123.131426 202 31096ft 306kts
12-Aug-20 19:06 44.278975 -123.163068 202 31093ft 313kts
12-Aug-20 19:07 44.195220 -123.194742 202 31089ft 306kts
12-Aug-20 19:08 44.113701 -123.220142 181 31108ft 306kts
12-Aug-20 19:09 44.029580 -123.205093 178 31091ft 303kts
12-Aug-20 19:10 43.946732 -123.189104 178 31094ft 303kts
12-Aug-20 19:11 43.861137 -123.172641 175 31091ft 324kts
12-Aug-20 19:12 43.770306 -123.155176 175 31087ft 335kts
12-Aug-20 19:13 43.677177 -123.137344 175 31086ft 340kts
12-Aug-20 19:14 43.583103 -123.119387 175 31066ft 344kts
12-Aug-20 19:15 43.488245 -123.101335 175 31045ft 345kts
12-Aug-20 19:16 43.393161 -123.083304 176 31046ft 345kts
12-Aug-20 19:17 43.298167 -123.065346 176 31046ft 344kts
12-Aug-20 19:18 43.203359 -123.047480 176 31047ft 344kts
12-Aug-20 19:19 43.109000 -123.029755 177 31047ft 343kts
12-Aug-20 19:20 43.014664 -123.012076 177 31047ft 341kts
12-Aug-20 19:21 42.921599 -122.994715 177 31028ft 334kts
12-Aug-20 19:22 42.833342 -122.978281 177 31007ft 326kts
12-Aug-20 19:23 42.744530 -122.961794 177 30994ft 321kts
12-Aug-20 19:24 42.656770 -122.945554 177 30990ft 318kts
12-Aug-20 19:25 42.569511 -122.929452 177 30991ft 316kts
12-Aug-20 19:26 42.482489 -122.913368 175 30991ft 316kts
12-Aug-20 19:27 42.396413 -122.888390 173 30991ft 316kts
12-Aug-20 19:28 42.310660 -122.863201 173 30991ft 315kts
12-Aug-20 19:29 42.225050 -122.838116 173 30991ft 315kts
12-Aug-20 19:31 42.139829 -122.813211 173 30995ft 314kts
12-Aug-20 19:32 42.054371 -122.788300 173 31003ft 314kts
12-Aug-20 19:33 41.968975 -122.763480 173 31013ft 314kts
12-Aug-20 19:34 41.887084 -122.739742 173 31020ft 314kts
12-Aug-20 19:35 41.801653 -122.715042 173 31020ft 314kts
12-Aug-20 19:36 41.716265 -122.690432 173 31020ft 315kts
12-Aug-20 19:37 41.630420 -122.665741 173 31020ft 315kts
12-Aug-20 19:38 41.544851 -122.641206 173 31020ft 315kts
12-Aug-20 19:39 41.459420 -122.616777 173 31020ft 315kts
12-Aug-20 19:40 41.373864 -122.592378 173 31020ft 315kts
12-Aug-20 19:41 41.288020 -122.567956 173 31020ft 315kts
12-Aug-20 19:42 41.202335 -122.543651 173 31000ft 315kts
12-Aug-20 19:43 41.116533 -122.519373 173 30961ft 316kts
12-Aug-20 19:44 41.030389 -122.495099 171 30919ft 317kts
12-Aug-20 19:45 40.943912 -122.470751 170 30892ft 319kts
12-Aug-20 19:46 40.859364 -122.447009 170 30891ft 319kts
12-Aug-20 19:47 40.772759 -122.422765 170 30891ft 319kts
12-Aug-20 19:48 40.686212 -122.398602 170 30891ft 319kts
12-Aug-20 19:48 40.613973 -122.378486 170 30892ft 319kts
12-Aug-20 19:50 40.512889 -122.350408 170 30892ft 319kts
12-Aug-20 19:50 40.440641 -122.330392 170 30888ft 318kts
12-Aug-20 19:51 40.353870 -122.306414 170 30889ft 318kts
12-Aug-20 19:52 40.266734 -122.282411 170 30370ft 334kts
12-Aug-20 19:53 40.172117 -122.256404 170 28840ft 358kts
12-Aug-20 19:54 40.074062 -122.223068 160 27222ft 370kts
12-Aug-20 19:55 39.978079 -122.172890 160 25571ft 373kts
12-Aug-20 19:56 39.883080 -122.123179 160 23940ft 373kts
12-Aug-20 19:57 39.786801 -122.072949 160 22289ft 372kts
12-Aug-20 19:58 39.691349 -122.023299 160 20652ft 370kts
12-Aug-20 19:59 39.597013 -121.974374 160 19032ft 358kts
12-Aug-20 20:00 39.509219 -121.928956 160 18889ft 329kts
12-Aug-20 20:01 39.424388 -121.885203 160 18895ft 328kts
12-Aug-20 20:02 39.336279 -121.839953 160 17363ft 351kts
12-Aug-20 20:03 39.243440 -121.808126 167 15357ft 339kts
12-Aug-20 20:04 39.154055 -121.779150 167 13351ft 325kts
12-Aug-20 20:05 39.070363 -121.742697 153 11351ft 317kts
12-Aug-20 20:06 38.998731 -121.692010 152 9968ft 267kts
12-Aug-20 20:07 38.933923 -121.645717 152 9971ft 268kts
12-Aug-20 20:08 38.869098 -121.599512 152 9974ft 268kts
12-Aug-20 20:09 38.803809 -121.553021 152 9976ft 268kts
12-Aug-20 20:10 38.738550 -121.506463 152 9979ft 268kts
12-Aug-20 20:11 38.674429 -121.460582 152 8992ft 254kts
12-Aug-20 20:12 38.629935 -121.404550 124 7299ft 219kts
12-Aug-20 20:13 38.610409 -121.336690 58 5302ft 219kts
12-Aug-20 20:14 38.646126 -121.358562 245 3353ft 198kts
12-Aug-20 20:15 38.619652 -121.410813 211 2583ft 144kts
12-Aug-20 20:16 38.585088 -121.435545 214 1621ft 139kts
12-Aug-20 20:17 38.552894 -121.461415 213 718ft 137kts
12-Aug-20 20:18 38.526039 -121.483689 210 319ft 87kts
12-Aug-20 20:19 38.511867 -121.495155 211 23ft 26kts
12-Aug-20 20:20 38.511351 -121.496782 272 22ft 0kts
12-Aug-20 20:21 38.512765 -121.496905 20 23ft 10kts
12-Aug-20 20:22 38.514830 -121.498410 222 23ft 0kts
12-Aug-20 20:23 38.514830 -121.498410 222 23ft 0kts
12-Aug-20 20:24 38.514830 -121.498410 222 23ft 0kts

Navigation Log

Ident Type
Flight plan parsing failed, navigation log unavailable